createdAt,value
2018-08-17T00:00:44.438Z,61.639404
2018-08-17T00:02:00.365Z,62.237549
2018-08-17T00:03:16.290Z,62.042236
2018-08-17T00:04:32.297Z,62.371826
2018-08-17T00:05:48.247Z,62.469482
2018-08-17T00:07:04.161Z,62.573242
2018-08-17T00:08:20.100Z,62.670898
2018-08-17T00:09:36.067Z,62.872314
2018-08-17T00:10:51.997Z,62.139893
2018-08-17T00:12:07.909Z,62.139893
2018-08-17T00:13:23.833Z,62.573242
2018-08-17T00:14:39.772Z,62.799072
2018-08-17T00:15:55.691Z,62.768555
2018-08-17T00:17:11.577Z,62.371826
2018-08-17T00:18:27.465Z,62.799072
2018-08-17T00:19:43.471Z,62.902832
2018-08-17T00:20:59.405Z,62.371826
2018-08-17T00:22:15.292Z,62.06665
2018-08-17T00:23:31.188Z,62.06665
2018-08-17T00:24:47.156Z,61.737061
2018-08-17T00:26:03.063Z,62.06665
2018-08-17T00:27:18.964Z,62.469482
2018-08-17T00:28:34.827Z,62.06665
2018-08-17T00:29:50.753Z,63.201904
2018-08-17T00:31:06.820Z,63.305664
2018-08-17T00:32:22.699Z,63.73291
2018-08-17T00:33:38.613Z,64.434814
2018-08-17T00:34:54.529Z,64.569092
2018-08-17T00:36:10.483Z,64.239502
2018-08-17T00:37:26.504Z,64.239502
2018-08-17T00:38:42.432Z,63.73291
2018-08-17T00:39:58.376Z,64.27002
2018-08-17T00:41:14.300Z,65.301514
2018-08-17T00:42:30.282Z,65.936279
2018-08-17T00:43:46.208Z,66.339111
2018-08-17T00:45:02.125Z,66.540527
2018-08-17T00:46:18.084Z,66.540527
2018-08-17T00:47:34.005Z,66.235352
2018-08-17T00:48:49.947Z,66.436768
2018-08-17T00:50:05.884Z,65.802002
2018-08-17T00:51:21.790Z,65.06958
2018-08-17T00:52:37.797Z,64.367676
2018-08-17T00:53:53.773Z,64.666748
2018-08-17T00:55:09.680Z,64.569092
2018-08-17T00:56:25.610Z,65.405273
2018-08-17T00:57:41.539Z,65.301514
2018-08-17T00:58:57.549Z,65.203857
2018-08-17T01:00:13.476Z,65.405273
2018-08-17T01:01:29.467Z,65.301514
2018-08-17T01:02:45.426Z,65.600586
2018-08-17T01:04:01.381Z,65.405273
2018-08-17T01:05:17.371Z,65.002441
2018-08-17T01:06:33.327Z,65.100098
2018-08-17T01:07:49.207Z,65.405273
2018-08-17T01:09:05.155Z,65.734863
2018-08-17T01:10:21.048Z,65.936279
2018-08-17T01:11:36.957Z,65.838623
2018-08-17T01:12:52.841Z,65.533447
2018-08-17T01:14:08.737Z,65.936279
2018-08-17T01:15:24.740Z,65.637207
2018-08-17T01:16:40.650Z,65.838623
2018-08-17T01:17:56.567Z,65.600586
2018-08-17T01:19:12.495Z,65.203857
2018-08-17T01:20:28.440Z,65.301514
2018-08-17T01:21:44.358Z,65.435791
2018-08-17T01:23:00.321Z,65.637207
2018-08-17T01:24:16.235Z,66.137695
2018-08-17T01:25:32.166Z,66.369629
2018-08-17T01:26:48.169Z,66.369629
2018-08-17T01:28:04.098Z,66.870117
2018-08-17T01:29:19.999Z,67.108154
2018-08-17T01:30:35.931Z,67.944336
2018-08-17T01:31:51.873Z,67.840576
2018-08-17T01:33:07.792Z,67.608643
2018-08-17T01:34:23.693Z,66.339111
2018-08-17T01:35:39.564Z,65.734863
2018-08-17T01:36:55.495Z,66.369629
2018-08-17T01:38:11.380Z,66.168213
2018-08-17T01:39:27.370Z,65.936279
2018-08-17T01:40:43.251Z,65.966797
2018-08-17T01:41:59.148Z,66.070557
2018-08-17T01:43:15.042Z,65.966797
2018-08-17T01:44:30.925Z,65.435791
2018-08-17T01:45:46.840Z,65.234375
2018-08-17T01:47:02.873Z,65.130615
2018-08-17T01:48:18.739Z,66.369629
2018-08-17T01:49:34.633Z,66.870117
2018-08-17T01:50:50.521Z,67.510986
2018-08-17T01:52:06.458Z,68.548584
2018-08-17T01:53:22.361Z,69.085693
2018-08-17T01:54:38.232Z,69.085693
2018-08-17T01:55:54.152Z,68.847656
2018-08-17T01:57:10.089Z,68.011475
2018-08-17T01:58:25.981Z,67.407227
2018-08-17T01:59:41.861Z,67.175293
2018-08-17T02:00:57.807Z,66.870117
2018-08-17T02:02:13.737Z,67.071533
2018-08-17T02:03:29.645Z,67.407227
2018-08-17T02:04:45.508Z,67.407227
2018-08-17T02:06:01.393Z,67.510986
2018-08-17T02:07:17.297Z,67.510986
2018-08-17T02:08:33.205Z,67.30957
2018-08-17T02:09:49.119Z,67.004395
2018-08-17T02:11:05.024Z,67.004395
2018-08-17T02:12:20.960Z,67.541504
2018-08-17T02:13:36.873Z,67.205811
2018-08-17T02:14:52.756Z,67.004395
2018-08-17T02:16:08.639Z,67.004395
2018-08-17T02:17:24.516Z,66.271973
2018-08-17T02:18:40.388Z,65.765381
2018-08-17T02:19:56.405Z,65.966797
2018-08-17T02:21:12.396Z,66.19873
2018-08-17T02:22:28.325Z,66.705322
2018-08-17T02:23:44.255Z,66.601562
2018-08-17T02:25:00.210Z,66.070557
2018-08-17T02:26:16.123Z,66.271973
2018-08-17T02:27:32.043Z,66.30249
2018-08-17T02:28:47.983Z,66.30249
2018-08-17T02:30:03.877Z,65.869141
2018-08-17T02:31:19.854Z,66.19873
2018-08-17T02:32:35.749Z,66.503906
2018-08-17T02:33:51.691Z,66.705322
2018-08-17T02:35:07.594Z,67.138672
2018-08-17T02:36:23.475Z,66.937256
2018-08-17T02:37:39.383Z,67.138672
2018-08-17T02:38:55.323Z,67.034912
2018-08-17T02:40:11.216Z,66.601562
2018-08-17T02:41:27.080Z,67.138672
2018-08-17T02:42:42.962Z,67.675781
2018-08-17T02:43:58.837Z,67.437744
2018-08-17T02:45:14.735Z,67.572021
2018-08-17T02:46:30.671Z,66.937256
2018-08-17T02:47:46.538Z,66.802979
2018-08-17T02:49:02.444Z,66.705322
2018-08-17T02:50:18.334Z,66.19873
2018-08-17T02:51:34.259Z,65.765381
2018-08-17T02:52:50.212Z,65.869141
2018-08-17T02:54:06.296Z,67.138672
2018-08-17T02:55:22.203Z,67.236328
2018-08-17T02:56:38.094Z,67.541504
2018-08-17T02:57:54.030Z,68.511963
2018-08-17T02:59:09.916Z,68.377686
2018-08-17T03:00:25.861Z,67.63916
2018-08-17T03:01:41.824Z,67.675781
2018-08-17T03:02:57.752Z,67.974854
2018-08-17T03:04:13.621Z,68.078613
2018-08-17T03:05:29.512Z,67.773438
2018-08-17T03:06:45.432Z,68.408203
2018-08-17T03:08:01.359Z,68.914795
2018-08-17T03:09:17.281Z,68.408203
2018-08-17T03:10:33.160Z,68.078613
2018-08-17T03:11:49.068Z,67.877197
2018-08-17T03:13:04.993Z,67.675781
2018-08-17T03:14:20.904Z,67.877197
2018-08-17T03:15:36.814Z,67.773438
2018-08-17T03:16:52.732Z,68.310547
2018-08-17T03:18:08.622Z,68.914795
2018-08-17T03:19:24.523Z,68.109131
2018-08-17T03:20:40.441Z,68.811035
2018-08-17T03:21:56.314Z,69.250488
2018-08-17T03:23:12.222Z,68.408203
2018-08-17T03:24:28.177Z,67.974854
2018-08-17T03:25:44.064Z,67.773438
2018-08-17T03:26:59.973Z,67.675781
2018-08-17T03:28:15.844Z,68.511963
2018-08-17T03:29:31.794Z,68.713379
2018-08-17T03:30:47.732Z,68.511963
2018-08-17T03:32:03.656Z,68.206787
2018-08-17T03:33:19.552Z,68.609619
2018-08-17T03:34:35.458Z,70.08667
2018-08-17T03:35:51.358Z,70.288086
2018-08-17T03:37:07.310Z,69.885254
2018-08-17T03:38:23.172Z,69.989014
2018-08-17T03:39:39.069Z,69.787598
2018-08-17T03:40:54.975Z,68.914795
2018-08-17T03:42:10.896Z,68.743896
2018-08-17T03:43:26.871Z,69.146729
2018-08-17T03:44:42.756Z,69.683838
2018-08-17T03:45:58.673Z,69.65332
2018-08-17T03:47:14.561Z,69.586182
2018-08-17T03:48:30.433Z,70.623779
2018-08-17T03:49:46.325Z,70.794678
2018-08-17T03:51:02.208Z,70.593262
2018-08-17T03:52:18.075Z,69.885254
2018-08-17T03:53:33.990Z,69.348145
2018-08-17T03:54:49.885Z,68.743896
2018-08-17T03:56:05.749Z,69.348145
2018-08-17T03:57:21.656Z,69.885254
2018-08-17T03:58:37.583Z,70.593262
2018-08-17T03:59:53.481Z,70.489502
2018-08-17T04:01:09.357Z,70.391846
2018-08-17T04:02:25.295Z,71.466064
2018-08-17T04:03:41.212Z,71.435547
2018-08-17T04:04:57.096Z,70.288086
2018-08-17T04:06:13.029Z,70.727539
2018-08-17T04:07:29.790Z,69.885254
2018-08-17T04:08:45.710Z,69.989014
2018-08-17T04:10:01.662Z,69.885254
2018-08-17T04:11:17.561Z,69.750977
2018-08-17T04:12:33.429Z,69.683838
2018-08-17T04:13:49.273Z,69.451904
2018-08-17T04:15:05.171Z,69.451904
2018-08-17T04:16:21.103Z,69.787598
2018-08-17T04:17:37.006Z,70.391846
2018-08-17T04:18:52.899Z,70.727539
2018-08-17T04:20:08.807Z,70.593262
2018-08-17T04:21:24.859Z,70.19043
2018-08-17T04:22:40.737Z,69.787598
2018-08-17T04:23:56.677Z,70.19043
2018-08-17T04:25:12.588Z,69.989014
2018-08-17T04:26:28.454Z,70.19043
2018-08-17T04:27:44.378Z,69.549561
2018-08-17T04:29:00.372Z,69.750977
2018-08-17T04:30:16.292Z,69.549561
2018-08-17T04:31:32.230Z,69.012451
2018-08-17T04:32:48.153Z,69.049072
2018-08-17T04:34:04.056Z,69.451904
2018-08-17T04:35:19.986Z,69.451904
2018-08-17T04:36:35.881Z,68.609619
2018-08-17T04:37:51.796Z,68.713379
2018-08-17T04:39:07.697Z,69.049072
2018-08-17T04:40:23.621Z,69.750977
2018-08-17T04:41:39.506Z,69.885254
2018-08-17T04:42:55.439Z,69.952393
2018-08-17T04:44:11.541Z,69.750977
2018-08-17T04:45:27.501Z,69.213867
2018-08-17T04:46:43.395Z,69.012451
2018-08-17T04:47:59.351Z,68.511963
2018-08-17T04:49:15.304Z,68.847656
2018-08-17T04:50:31.260Z,69.348145
2018-08-17T04:51:47.146Z,69.250488
2018-08-17T04:53:03.069Z,69.854736
2018-08-17T04:54:18.984Z,70.391846
2018-08-17T04:55:34.948Z,70.690918
2018-08-17T04:56:50.911Z,70.391846
2018-08-17T04:58:06.816Z,70.257568
2018-08-17T04:59:22.746Z,69.952393
2018-08-17T05:00:38.665Z,69.519043
2018-08-17T05:01:54.579Z,68.914795
2018-08-17T05:03:10.573Z,69.116211
2018-08-17T05:04:26.484Z,69.519043
2018-08-17T05:05:42.415Z,69.415283
2018-08-17T05:06:58.317Z,69.952393
2018-08-17T05:08:14.232Z,69.818115
2018-08-17T05:09:30.152Z,70.056152
2018-08-17T05:10:46.015Z,70.056152
2018-08-17T05:12:02.169Z,70.153809
2018-08-17T05:13:18.102Z,70.153809
2018-08-17T05:14:34.022Z,70.6604
2018-08-17T05:15:49.940Z,70.056152
2018-08-17T05:17:07.035Z,70.458984
2018-08-17T05:21:20.902Z,69.012451
2018-08-17T05:22:36.889Z,68.914795
2018-08-17T05:23:52.768Z,69.213867
2018-08-17T05:25:08.703Z,68.377686
2018-08-17T05:26:25.053Z,68.682861
2018-08-17T05:27:41.102Z,68.481445
2018-08-17T05:28:57.012Z,68.078613
2018-08-17T05:30:12.976Z,68.377686
2018-08-17T05:31:28.923Z,68.481445
2018-08-17T05:32:44.824Z,68.377686
2018-08-17T05:34:00.731Z,68.780518
2018-08-17T05:35:16.657Z,69.116211
2018-08-17T05:36:32.600Z,68.780518
2018-08-17T05:37:48.568Z,69.317627
2018-08-17T05:39:04.440Z,69.317627
2018-08-17T05:40:20.406Z,69.519043
2018-08-17T05:41:36.335Z,69.720459
2018-08-17T05:42:52.236Z,69.616699
2018-08-17T05:44:08.179Z,69.085693
2018-08-17T05:45:24.088Z,69.287109
2018-08-17T05:50:02.246Z,69.689941
2018-08-17T05:52:58.777Z,68.951416
2018-08-17T05:54:14.799Z,68.75
2018-08-17T05:55:30.696Z,69.152832
2018-08-17T05:56:46.676Z,68.847656
2018-08-17T05:58:02.551Z,69.049072
2018-08-17T05:59:18.552Z,69.354248
2018-08-17T06:00:34.637Z,69.75708
2018-08-17T06:01:50.621Z,69.75708
2018-08-17T06:03:06.574Z,69.219971
2018-08-17T06:04:22.496Z,69.116211
2018-08-17T06:05:38.428Z,69.018555
2018-08-17T06:06:54.361Z,69.018555
2018-08-17T06:08:10.293Z,68.280029
2018-08-17T06:09:26.274Z,68.078613
2018-08-17T06:10:42.221Z,68.078613
2018-08-17T06:11:58.217Z,68.280029
2018-08-17T06:13:14.167Z,68.078613
2018-08-17T06:14:30.120Z,68.481445
2018-08-17T06:15:46.067Z,68.481445
2018-08-17T06:17:02.010Z,68.383789
2018-08-17T06:18:17.933Z,68.585205
2018-08-17T06:19:33.854Z,68.347168
2018-08-17T06:20:49.757Z,68.249512
2018-08-17T06:22:05.662Z,68.450928
2018-08-17T06:23:21.605Z,68.145752
2018-08-17T06:24:37.536Z,68.249512
2018-08-17T06:25:53.493Z,68.212891
2018-08-17T06:27:09.403Z,68.212891
2018-08-17T06:28:25.311Z,68.212891
2018-08-17T06:29:41.272Z,67.816162
2018-08-17T06:30:57.229Z,67.681885
2018-08-17T06:32:13.197Z,67.883301
2018-08-17T06:33:29.142Z,67.681885
2018-08-17T06:34:45.077Z,67.681885
2018-08-17T06:36:01.003Z,67.449951
2018-08-17T06:37:16.909Z,67.248535
2018-08-17T06:38:33.817Z,67.047119
2018-08-17T06:39:49.703Z,66.845703
2018-08-17T06:41:05.644Z,66.644287
2018-08-17T06:42:21.558Z,66.61377
2018-08-17T06:43:37.626Z,66.815186
2018-08-17T06:44:53.560Z,66.61377
2018-08-17T06:46:09.529Z,66.516113
2018-08-17T06:47:25.439Z,66.815186
2018-08-17T06:50:21.858Z,66.711426
2018-08-17T06:51:37.818Z,66.912842
2018-08-17T06:52:53.758Z,67.718506
2018-08-17T06:54:09.678Z,68.121338
2018-08-17T06:55:25.581Z,68.518066
2018-08-17T06:56:41.573Z,68.389893
2018-08-17T06:57:57.475Z,68.585205
2018-08-17T06:59:13.422Z,68.920898
2018-08-17T07:00:29.337Z,68.890381
2018-08-17T07:01:45.287Z,68.786621
2018-08-17T07:03:01.280Z,68.389893
2018-08-17T07:04:17.231Z,68.151855
2018-08-17T07:05:33.203Z,68.255615
2018-08-17T07:06:49.212Z,68.353271
2018-08-17T07:08:05.169Z,68.554688
2018-08-17T07:09:21.256Z,68.353271
2018-08-17T07:10:37.128Z,67.852783
2018-08-17T07:11:53.065Z,67.755127
2018-08-17T07:13:09.027Z,67.956543
2018-08-17T07:14:24.985Z,68.353271
2018-08-17T07:15:40.923Z,68.255615
2018-08-17T07:16:56.863Z,68.621826
2018-08-17T07:18:12.850Z,68.42041
2018-08-17T07:19:28.792Z,68.322754
2018-08-17T07:20:44.776Z,68.725586
2018-08-17T07:22:00.750Z,69.122314
2018-08-17T07:23:16.736Z,68.621826
2018-08-17T07:24:32.636Z,69.525146
2018-08-17T07:25:48.576Z,69.726562
2018-08-17T07:27:04.571Z,69.622803
2018-08-17T07:28:20.505Z,69.824219
2018-08-17T07:29:36.434Z,69.390869
2018-08-17T07:30:52.412Z,69.488525
2018-08-17T07:32:08.371Z,69.726562
2018-08-17T07:33:24.342Z,69.824219
2018-08-17T07:34:40.260Z,69.793701
2018-08-17T07:35:56.302Z,69.293213
2018-08-17T07:37:12.154Z,69.091797
2018-08-17T07:38:28.218Z,69.091797
2018-08-17T07:39:44.158Z,69.091797
2018-08-17T07:41:00.091Z,69.390869
2018-08-17T07:42:16.012Z,69.091797
2018-08-17T07:43:31.942Z,68.95752
2018-08-17T07:44:47.858Z,68.859863
2018-08-17T07:46:03.825Z,68.457031
2018-08-17T07:47:19.766Z,69.091797
2018-08-17T07:48:35.693Z,69.189453
2018-08-17T07:49:51.788Z,69.091797
2018-08-17T07:51:07.745Z,69.293213
2018-08-17T07:52:23.677Z,69.293213
2018-08-17T07:53:39.759Z,68.756104
2018-08-17T07:54:55.781Z,68.457031
2018-08-17T07:56:11.711Z,69.458008
2018-08-17T07:57:27.645Z,69.659424
2018-08-17T07:58:43.602Z,69.555664
2018-08-17T07:59:59.564Z,69.42749
2018-08-17T08:01:15.552Z,69.42749
2018-08-17T08:02:31.510Z,69.525146
2018-08-17T08:03:47.472Z,69.122314
2018-08-17T08:05:03.415Z,68.823242
2018-08-17T08:06:19.443Z,68.823242
2018-08-17T08:07:35.381Z,69.024658
2018-08-17T08:08:51.315Z,69.226074
2018-08-17T08:10:07.248Z,69.42749
2018-08-17T08:11:23.206Z,69.32373
2018-08-17T08:12:39.198Z,69.293213
2018-08-17T08:13:55.127Z,68.19458
2018-08-17T08:15:11.118Z,69.091797
2018-08-17T08:16:27.059Z,68.389893
2018-08-17T08:17:43.037Z,67.889404
2018-08-17T08:18:58.985Z,68.591309
2018-08-17T08:20:14.951Z,68.292236
2018-08-17T08:21:30.809Z,67.962646
2018-08-17T08:22:46.836Z,67.260742
2018-08-17T08:24:02.784Z,67.126465
2018-08-17T08:25:18.673Z,64.331055
2018-08-17T08:26:34.597Z,63.62915
2018-08-17T08:27:50.543Z,65.826416
2018-08-17T08:29:06.506Z,66.827393
2018-08-17T08:30:22.493Z,66.796875
2018-08-17T08:31:38.620Z,65.332031
2018-08-17T08:32:54.564Z,66.131592
2018-08-17T08:34:10.503Z,65.631104
2018-08-17T08:35:26.493Z,61.901855
2018-08-17T08:36:42.471Z,65.228271
2018-08-17T08:37:58.433Z,65.997314
2018-08-17T08:39:14.370Z,67.095947
2018-08-17T08:40:30.304Z,66.497803
2018-08-17T08:41:46.274Z,66.497803
2018-08-17T08:43:02.257Z,66.796875
2018-08-17T08:44:18.202Z,65.228271
2018-08-17T08:45:34.222Z,65.826416
2018-08-17T08:46:50.136Z,66.131592
2018-08-17T08:48:06.089Z,66.229248
2018-08-17T08:49:21.992Z,65.631104
2018-08-17T08:50:37.968Z,64.202881
2018-08-17T08:51:53.934Z,64.501953
2018-08-17T08:53:09.944Z,65.100098
2018-08-17T08:54:25.885Z,65.466309
2018-08-17T08:55:41.860Z,65.466309
2018-08-17T08:56:57.755Z,65.06958
2018-08-17T08:58:13.724Z,64.172363
2018-08-17T08:59:29.715Z,62.402344
2018-08-17T09:00:45.649Z,64.569092
2018-08-17T09:02:01.596Z,64.569092
2018-08-17T09:03:17.553Z,64.172363
2018-08-17T09:04:33.563Z,64.599609
2018-08-17T09:05:49.611Z,63.000488
2018-08-17T09:07:05.545Z,63.470459
2018-08-17T09:08:21.472Z,63.07373
2018-08-17T09:09:37.459Z,63.970947
2018-08-17T09:10:53.449Z,63.439941
2018-08-17T09:12:09.431Z,63.110352
2018-08-17T09:13:25.373Z,62.182617
2018-08-17T09:14:41.339Z,60.717773
2018-08-17T09:15:57.366Z,61.547852
2018-08-17T09:17:13.351Z,61.077881
2018-08-17T09:18:28.295Z,59.875488
2018-08-17T09:19:44.256Z,60.876465
2018-08-17T09:21:00.203Z,61.474609
2018-08-17T09:22:16.135Z,60.778809
2018-08-17T09:23:32.081Z,60.675049
2018-08-17T09:24:48.046Z,60.345459
2018-08-17T09:26:04.019Z,60.650635
2018-08-17T09:27:19.938Z,60.650635
2018-08-17T09:28:35.943Z,60.217285
2018-08-17T09:29:51.870Z,61.218262
2018-08-17T09:31:07.779Z,61.444092
2018-08-17T09:32:23.755Z,60.748291
2018-08-17T09:33:39.710Z,60.345459
2018-08-17T09:34:55.662Z,60.650635
2018-08-17T09:36:11.617Z,61.846924
2018-08-17T09:37:27.601Z,62.145996
2018-08-17T09:38:43.524Z,60.546875
2018-08-17T09:39:59.421Z,59.820557
2018-08-17T09:41:15.413Z,59.320068
2018-08-17T09:42:31.321Z,58.996582
2018-08-17T09:43:47.240Z,58.795166
2018-08-17T09:45:03.156Z,58.294678
2018-08-17T09:46:19.118Z,57.598877
2018-08-17T09:47:35.062Z,58.099365
2018-08-17T09:48:50.972Z,58.892822
2018-08-17T09:50:06.982Z,56.80542
2018-08-17T09:51:23.046Z,59.094238
2018-08-17T09:52:38.956Z,59.594727
2018-08-17T09:53:55.047Z,57.769775
2018-08-17T09:55:10.975Z,56.402588
2018-08-17T09:56:26.983Z,56.774902
2018-08-17T09:57:42.969Z,55.780029
2018-08-17T09:58:58.788Z,56.47583
2018-08-17T10:00:14.787Z,57.672119
2018-08-17T10:01:30.744Z,57.940674
2018-08-17T10:02:46.748Z,58.837891
2018-08-17T10:04:02.686Z,57.940674
2018-08-17T10:05:18.584Z,57.940674
2018-08-17T10:06:34.490Z,58.013916
2018-08-17T10:07:50.420Z,58.239746
2018-08-17T10:09:06.382Z,57.147217
2018-08-17T10:10:22.288Z,57.641602
2018-08-17T10:11:38.223Z,58.013916
2018-08-17T10:12:54.223Z,57.617188
2018-08-17T10:14:10.149Z,56.817627
2018-08-17T10:15:26.109Z,56.121826
2018-08-17T10:16:42.032Z,56.225586
2018-08-17T10:17:57.963Z,57.415771
2018-08-17T10:19:13.892Z,57.714844
2018-08-17T10:20:29.860Z,56.793213
2018-08-17T10:21:46.121Z,57.116699
2018-08-17T10:23:01.741Z,57.415771
2018-08-17T10:24:17.694Z,58.312988
2018-08-17T10:25:33.603Z,58.813477
2018-08-17T10:26:49.540Z,58.215332
2018-08-17T10:28:05.460Z,59.210205
2018-08-17T10:29:21.328Z,57.391357
2018-08-17T10:30:37.282Z,58.355713
2018-08-17T10:31:53.229Z,57.562256
2018-08-17T10:33:09.227Z,58.258057
2018-08-17T10:34:25.124Z,57.928467
2018-08-17T10:35:41.093Z,57.733154
2018-08-17T10:36:57.016Z,58.502197
2018-08-17T10:38:12.955Z,57.263184
2018-08-17T10:39:28.887Z,58.856201
2018-08-17T10:40:44.780Z,58.1604
2018-08-17T10:42:00.695Z,57.788086
2018-08-17T10:43:16.653Z,58.654785
2018-08-17T10:47:29.352Z,57.702637
2018-08-17T10:48:45.381Z,57.904053
2018-08-17T10:50:01.260Z,57.080078
2018-08-17T10:51:17.211Z,57.305908
2018-08-17T10:52:33.119Z,58.398438
2018-08-17T10:53:49.092Z,58.001709
2018-08-17T10:55:05.048Z,58.172607
2018-08-17T10:56:20.964Z,58.148193
2018-08-17T10:57:36.836Z,57.37915
2018-08-17T11:03:30.149Z,58.227539
2018-08-17T11:04:46.122Z,58.526611
2018-08-17T11:06:02.066Z,58.825684
2018-08-17T11:07:18.000Z,59.521484
2018-08-17T11:08:33.942Z,59.790039
2018-08-17T11:09:49.902Z,59.594727
2018-08-17T11:11:05.859Z,59.692383
2018-08-17T11:12:21.765Z,59.887695
2018-08-17T11:13:37.743Z,58.502197
2018-08-17T11:14:53.660Z,58.203125
2018-08-17T11:16:09.681Z,59.094238
2018-08-17T11:17:25.620Z,59.490967
2018-08-17T11:18:41.651Z,59.393311
2018-08-17T11:19:57.549Z,59.594727
2018-08-17T11:21:13.476Z,58.300781
2018-08-17T11:22:29.428Z,58.331299
2018-08-17T11:23:45.352Z,57.336426
2018-08-17T11:25:01.266Z,58.331299
2018-08-17T11:26:17.244Z,58.428955
2018-08-17T11:27:33.148Z,55.847168
2018-08-17T11:28:49.054Z,56.213379
2018-08-17T11:30:04.954Z,56.414795
2018-08-17T11:31:20.901Z,58.099365
2018-08-17T11:32:36.844Z,58.398438
2018-08-17T11:33:52.774Z,58.770752
2018-08-17T11:35:08.716Z,57.678223
2018-08-17T11:36:24.635Z,58.868408
2018-08-17T11:37:40.591Z,58.270264
2018-08-17T11:38:56.586Z,58.47168
2018-08-17T11:40:13.004Z,56.982422
2018-08-17T11:41:29.161Z,56.951904
2018-08-17T11:42:44.906Z,55.865479
2018-08-17T11:44:00.826Z,56.060791
2018-08-17T11:45:16.762Z,56.585693
2018-08-17T11:46:32.668Z,58.24585
2018-08-17T11:47:48.645Z,57.250977
2018-08-17T11:49:04.571Z,58.343506
2018-08-17T11:50:20.494Z,56.262207
2018-08-17T11:51:36.395Z,57.354736
2018-08-17T11:52:52.595Z,56.854248
2018-08-17T11:54:08.507Z,57.15332
2018-08-17T11:55:24.443Z,57.421875
2018-08-17T11:56:40.462Z,56.506348
2018-08-17T11:57:56.333Z,55.682373
2018-08-17T11:59:12.244Z,55.609131
2018-08-17T12:00:28.294Z,56.304932
2018-08-17T12:01:44.253Z,57.397461
2018-08-17T12:03:00.146Z,56.799316
2018-08-17T12:04:16.095Z,55.908203
2018-08-17T12:05:31.994Z,56.47583
2018-08-17T12:06:48.087Z,56.176758
2018-08-17T12:08:04.019Z,56.420898
2018-08-17T12:09:19.949Z,53.424072
2018-08-17T12:10:35.929Z,53.948975
2018-08-17T12:14:48.386Z,54.272461
2018-08-17T12:16:04.309Z,54.736328
2018-08-17T12:17:20.244Z,53.424072
2018-08-17T12:18:36.246Z,54.119873
2018-08-17T12:19:52.150Z,53.106689
2018-08-17T12:21:08.041Z,54.217529
2018-08-17T12:22:23.921Z,53.820801
2018-08-17T12:23:39.888Z,53.497314
2018-08-17T12:24:55.887Z,53.204346
2018-08-17T12:26:11.803Z,51.519775
2018-08-17T12:27:27.743Z,51.818848
2018-08-17T12:28:43.699Z,51.647949
2018-08-17T12:29:59.586Z,52.709961
2018-08-17T12:31:15.493Z,52.880859
2018-08-17T12:32:31.386Z,52.581787
2018-08-17T12:33:47.292Z,52.709961
2018-08-17T12:35:03.286Z,51.794434
2018-08-17T12:36:19.185Z,51.672363
2018-08-17T12:37:35.113Z,51.275635
2018-08-17T12:38:51.018Z,51.672363
2018-08-17T12:40:06.986Z,51.77002
2018-08-17T12:41:22.969Z,50.90332
2018-08-17T12:42:38.912Z,51.470947
2018-08-17T12:43:54.908Z,50.78125
2018-08-17T12:45:10.833Z,50.683594
2018-08-17T12:46:26.764Z,51.177979
2018-08-17T12:47:42.743Z,51.177979
2018-08-17T12:48:59.651Z,51.153564
2018-08-17T12:50:15.564Z,52.532959
2018-08-17T12:51:31.463Z,52.435303
2018-08-17T12:52:47.382Z,51.226807
2018-08-17T12:54:03.367Z,50.561523
2018-08-17T12:55:19.308Z,51.446533
2018-08-17T12:56:35.234Z,52.410889
2018-08-17T12:57:51.349Z,52.606201
2018-08-17T12:59:07.278Z,51.617432
2018-08-17T13:00:23.228Z,50.457764
2018-08-17T13:01:39.160Z,51.641846
2018-08-17T13:02:55.116Z,51.544189
2018-08-17T13:04:11.043Z,50.854492
2018-08-17T13:05:27.017Z,51.446533
2018-08-17T13:06:42.902Z,51.843262
2018-08-17T13:07:58.814Z,50.561523
2018-08-17T13:09:14.776Z,48.583984
2018-08-17T13:10:30.751Z,46.685791
2018-08-17T13:11:46.659Z,45.404053
2018-08-17T13:13:02.562Z,46.588135
2018-08-17T13:14:18.559Z,46.856689
2018-08-17T13:15:34.572Z,45.776367
2018-08-17T13:16:50.501Z,44.98291
2018-08-17T13:18:06.402Z,45.776367
2018-08-17T13:19:22.307Z,47.772217
2018-08-17T13:20:38.266Z,47.692871
2018-08-17T13:21:54.219Z,48.406982
2018-08-17T13:23:10.181Z,47.839355
2018-08-17T13:24:26.004Z,50.43335
2018-08-17T13:25:41.907Z,52.01416
2018-08-17T13:26:57.835Z,55.645752
2018-08-17T13:28:13.844Z,56.512451
2018-08-17T13:29:29.829Z,53.967285
2018-08-17T13:30:45.779Z,55.67627
2018-08-17T13:32:01.767Z,55.181885
2018-08-17T13:33:17.692Z,53.302002
2018-08-17T13:34:33.659Z,53.497314
2018-08-17T13:35:49.657Z,53.869629
2018-08-17T13:37:05.620Z,52.581787
2018-08-17T13:38:21.551Z,52.783203
2018-08-17T13:39:37.496Z,50.610352
2018-08-17T13:40:53.572Z,51.568604
2018-08-17T13:42:09.583Z,50.756836
2018-08-17T13:43:25.475Z,50.854492
2018-08-17T13:44:41.457Z,48.980713
2018-08-17T13:45:57.397Z,49.572754
2018-08-17T13:47:14.429Z,48.608398
2018-08-17T13:48:30.460Z,50.506592
2018-08-17T13:49:47.418Z,51.721191
2018-08-17T13:51:03.435Z,52.734375
2018-08-17T13:52:19.331Z,55.603027
2018-08-17T13:53:35.294Z,58.203125
2018-08-17T13:54:51.220Z,56.549072
2018-08-17T13:56:07.148Z,57.93457
2018-08-17T13:57:23.052Z,56.915283
2018-08-17T13:58:39.015Z,49.56665
2018-08-17T13:59:54.962Z,42.840576
2018-08-17T14:01:10.968Z,40.838623
2018-08-17T14:02:26.891Z,40.246582
2018-08-17T14:03:42.893Z,39.752197
2018-08-17T14:04:58.776Z,39.434814
2018-08-17T14:06:14.717Z,39.849854
2018-08-17T14:07:30.687Z,38.94043
2018-08-17T14:08:46.672Z,39.044189
2018-08-17T14:10:02.613Z,38.842773
2018-08-17T14:11:18.651Z,38.763428
2018-08-17T14:12:34.618Z,38.861084
2018-08-17T14:13:50.700Z,39.0625
2018-08-17T14:15:06.651Z,39.459229
2018-08-17T14:16:22.611Z,39.459229
2018-08-17T14:17:38.566Z,40.05127
2018-08-17T14:18:54.541Z,40.344238
2018-08-17T14:20:10.492Z,40.148926
2018-08-17T14:21:26.418Z,40.466309
2018-08-17T14:22:42.350Z,40.960693
2018-08-17T14:23:58.290Z,41.253662
2018-08-17T14:25:14.193Z,41.455078
2018-08-17T14:26:30.218Z,41.75415
2018-08-17T14:27:46.132Z,41.949463
2018-08-17T14:29:02.057Z,41.455078
2018-08-17T14:30:18.076Z,41.18042
2018-08-17T14:31:34.029Z,41.375732
2018-08-17T14:32:49.975Z,41.473389
2018-08-17T14:34:05.888Z,41.967773
2018-08-17T14:35:21.929Z,42.06543
2018-08-17T14:36:37.970Z,41.967773
2018-08-17T14:37:54.150Z,42.1875
2018-08-17T14:39:10.046Z,42.1875
2018-08-17T14:40:26.075Z,42.285156
2018-08-17T14:41:41.870Z,42.779541
2018-08-17T14:42:57.786Z,42.681885
2018-08-17T14:44:13.684Z,42.584229
2018-08-17T14:45:29.617Z,42.883301
2018-08-17T14:46:45.526Z,42.681885
2018-08-17T14:48:01.486Z,42.779541
2018-08-17T14:49:18.430Z,43.17627